IDBO2: Little River, Idabel, OK

                                SHEF ID:       IDBO2     Little River blw Lukfata Creek
STATION TYPE: Stream Gauge
Regulating: Stage = 27.50, Flow = 12738

PRECIP STAGE RIV-FLOW BAT-LOAD
in ft cfs volt
Ccp-Rev Ccp-Rev Ccp-Rev Ccp-Rev
(America/Chicago)
04/25 00:00 0.00 6.38 361 13.55
04/25 01:00 0.00 6.38 361 13.54
04/25 02:00 0.00 6.40 367 13.52
04/25 03:00 0.00 6.44 380 13.50
04/25 04:00 0.00 6.48 393 13.48
04/25 05:00 0.00 6.50 400 13.45
04/25 06:00 0.00 6.51 403 13.45
04/25 07:00 0.00 6.51 403 13.43
04/25 08:00 0.00 6.51 403 13.42
04/25 09:00 0.01 6.52 406 13.49
04/25 10:00 0.00 6.53 409 13.82
04/25 11:00 0.00 6.57 422 13.93
04/25 12:00 0.00 6.60 432 13.90
04/25 13:00 0.00 6.63 442 13.88
04/25 14:00 0.00 6.65 448 13.85
04/25 15:00 0.00 6.69 462 13.82
04/25 16:00 0.00 6.73 475 13.82
04/25 17:00 0.00 6.78 492 13.78
04/25 18:00 0.00 6.82 505 13.76
04/25 19:00 0.00 6.88 525 13.75
04/25 20:00 0.00 6.93 543 13.72
04/25 21:00 0.00 6.99 565 13.68
04/25 22:00 0.00 7.05 590 13.65
04/25 23:00 0.00 7.13 624 13.62
Data processed at Sun 26Apr2026 04:32 GMT

NOTICE: If you are parsing this page

Please convert to using our Data API. Starting early 2026 we will be migrating to: https://water.usace.army.mil with modern pages rendered in JavaScript. When this migration completes you will no longer be able to scrape this page! CWMSDataAPI (CDA)

Timeseries IDs (TSIDs)

TSIDs used from left to right in the data table
IDAB.Precip-Inc.Total.1Hour.1Hour.Ccp-Rev
IDAB.Stage.Inst.1Hour.0.Ccp-Rev
IDAB.Flow.Inst.1Hour.0.Ccp-Rev
IDAB.Volt-Battery Load.Inst.1Hour.0.Ccp-Rev

                            

All information presented herein is the property of the government of the United States of America and may be revised or deleted at any time without prior notice. Dissemination of this information without the expressed written consent of the Public Affairs Office, Tulsa District U.S. Army Corps of Engineers is strictly prohibited. These data are gathered electronically and, as presented, have NOT undergone any form of quality control. These data are NOT guaranteed to be valid or correct.